Time;durP1;ratioP1;P1;durP2;ratioP2;P2;SDS_P1;SDS_P2;PMS_P1;PMS_P2;Temp;Humidity;BMP_temperature;BMP_pressure;BME280_temperature;BME280_humidity;BME280_pressure;Samples;Min_cycle;Max_cycle;Signal;HPM_P1;HPM_P2
2022/06/12 00:00:54;;;;;;;17.27;4.75;;;16.30;99.90;;;;;;7393754;19;20002;-60
2022/06/12 00:03:25;;;;;;;11.70;3.95;;;16.20;99.90;;;;;;7394480;19;20121;-60
2022/06/12 00:05:58;;;;;;;12.43;4.18;;;16.10;99.90;;;;;;7393461;19;20022;-61
2022/06/12 00:08:28;;;;;;;24.00;6.53;;;16.10;99.90;;;;;;7392664;19;20018;-60
2022/06/12 00:11:01;;;;;;;34.53;11.10;;;16.00;99.90;;;;;;7393784;19;20011;-61
2022/06/12 00:13:33;;;;;;;20.33;6.35;;;16.00;99.90;;;;;;7393252;19;20014;-61
2022/06/12 00:16:03;;;;;;;13.45;4.18;;;16.00;99.90;;;;;;7391922;19;20007;-60
2022/06/12 00:18:32;;;;;;;10.75;4.18;;;15.90;99.90;;;;;;7393445;19;20017;-60
2022/06/12 00:21:16;;;;;;;13.38;3.45;;;16.00;99.90;;;;;;7392739;19;20018;-60
2022/06/12 00:23:50;;;;;;;15.77;4.28;;;16.00;99.90;;;;;;7393152;19;20010;-60
2022/06/12 00:26:24;;;;;;;20.85;5.47;;;15.80;99.90;;;;;;7397928;19;20014;-60
2022/06/12 00:28:59;;;;;;;28.58;9.20;;;15.90;99.90;;;;;;7400561;19;20014;-60
2022/06/12 00:31:29;;;;;;;14.00;4.40;;;15.90;99.90;;;;;;7400162;19;20017;-60
2022/06/12 00:33:58;;;;;;;13.07;4.43;;;17.00;99.90;;;;;;7400138;19;20355;-60
2022/06/12 00:36:27;;;;;;;21.83;5.43;;;15.80;99.90;;;;;;7397599;19;20093;-60
2022/06/12 00:38:56;;;;;;;11.15;4.03;;;15.50;99.90;;;;;;7400003;19;20029;-60
2022/06/12 00:41:29;;;;;;;21.58;6.40;;;15.60;99.90;;;;;;7403354;19;20543;-60
2022/06/12 00:43:58;;;;;;;13.68;4.43;;;15.40;99.90;;;;;;7399822;19;20376;-60
2022/06/12 00:46:49;;;;;;;17.05;5.50;;;15.50;99.90;;;;;;7399739;19;20002;-60
2022/06/12 00:49:22;;;;;;;18.63;5.90;;;15.60;99.90;;;;;;7399629;19;20014;-60
2022/06/12 00:51:56;;;;;;;16.92;4.40;;;15.50;99.90;;;;;;7399562;19;20082;-60
2022/06/12 00:54:29;;;;;;;29.40;8.48;;;15.60;99.90;;;;;;7400178;19;20031;-60
2022/06/12 00:57:03;;;;;;;24.80;7.22;;;15.60;99.90;;;;;;7396627;19;20019;-60
2022/06/12 00:59:38;;;;;;;24.90;7.75;;;15.50;99.90;;;;;;7399397;19;20003;-60
2022/06/12 01:02:09;;;;;;;16.65;6.00;;;15.10;99.90;;;;;;7399666;19;20018;-60
2022/06/12 01:07:24;;;;;;;22.15;5.65;;;15.30;99.90;;;;;;7399249;19;20463;-60
2022/06/12 01:09:55;;;;;;;19.85;5.13;;;15.20;99.90;;;;;;7399168;19;20028;-60
2022/06/12 01:12:31;;;;;;;16.50;5.25;;;15.60;99.90;;;;;;7399123;19;20015;-60
2022/06/12 01:15:05;;;;;;;48.28;14.57;;;15.20;99.90;;;;;;7399079;19;20027;-60
2022/06/12 01:17:34;;;;;;;57.53;15.38;;;15.20;99.90;;;;;;7399378;19;20025;-60
2022/06/12 01:20:08;;;;;;;101.72;30.02;;;15.20;99.90;;;;;;7398724;19;20033;-60
2022/06/12 01:23:05;;;;;;;59.70;18.70;;;14.60;99.90;;;;;;7398752;19;20550;-60
2022/06/12 01:26:07;;;;;;;150.05;39.08;;;15.20;99.90;;;;;;7398504;19;20010;-60
2022/06/12 01:28:46;;;;;;;45.97;12.45;;;15.00;99.90;;;;;;7394706;19;20518;-61
2022/06/12 01:31:26;;;;;;;20.15;5.90;;;15.20;99.90;;;;;;7398669;19;20014;-60
2022/06/12 01:34:08;;;;;;;24.77;7.10;;;14.90;99.90;;;;;;7398403;19;20066;-60
2022/06/12 01:36:45;;;;;;;12.77;3.95;;;14.90;99.90;;;;;;7394642;19;20408;-60
2022/06/12 01:39:19;;;;;;;14.52;4.60;;;15.00;99.90;;;;;;7400541;19;20023;-60
2022/06/12 01:41:55;;;;;;;12.00;3.80;;;15.00;99.90;;;;;;7398035;19;20082;-60
2022/06/12 01:44:38;;;;;;;15.55;5.78;;;14.90;99.90;;;;;;7397669;19;20007;-60
2022/06/12 01:47:19;;;;;;;14.10;4.72;;;14.70;99.90;;;;;;7398290;19;20021;-60
2022/06/12 01:49:57;;;;;;;11.70;4.28;;;14.70;99.90;;;;;;7397816;19;20479;-60
2022/06/12 01:52:32;;;;;;;16.85;5.15;;;15.20;99.90;;;;;;7397569;19;20355;-60
2022/06/12 01:55:08;;;;;;;18.08;5.75;;;14.90;99.90;;;;;;7397884;19;20493;-60
2022/06/12 01:57:43;;;;;;;25.80;6.30;;;14.90;99.90;;;;;;7397453;19;20388;-60
2022/06/12 02:00:18;;;;;;;12.00;4.43;;;15.20;99.90;;;;;;7397677;19;20015;-60
2022/06/12 02:02:52;;;;;;;13.90;4.22;;;14.60;99.90;;;;;;7397457;19;20030;-60
2022/06/12 02:05:25;;;;;;;17.25;5.30;;;14.70;99.90;;;;;;7396621;19;20087;-60
2022/06/12 02:08:00;;;;;;;10.05;3.70;;;14.60;99.90;;;;;;7396873;19;20036;-60
2022/06/12 02:10:35;;;;;;;10.47;3.63;;;14.50;99.90;;;;;;7399195;19;20017;-60
2022/06/12 02:13:13;;;;;;;14.05;5.13;;;14.40;99.90;;;;;;7397212;19;20086;-60
2022/06/12 02:15:56;;;;;;;15.75;6.85;;;14.50;99.90;;;;;;7396144;19;20040;-60
2022/06/12 02:18:35;;;;;;;20.40;6.80;;;14.00;99.90;;;;;;7396776;19;20038;-60
2022/06/12 02:21:12;;;;;;;29.67;12.48;;;14.40;99.90;;;;;;7396659;19;20027;-60
2022/06/12 02:23:46;;;;;;;35.83;13.98;;;14.40;99.90;;;;;;7397202;19;20444;-60
2022/06/12 02:26:18;;;;;;;19.77;8.20;;;14.30;99.90;;;;;;7396936;19;20042;-60
2022/06/12 02:28:53;;;;;;;21.10;7.90;;;14.30;99.90;;;;;;7394592;19;20014;-60
2022/06/12 02:31:29;;;;;;;14.63;5.22;;;14.40;99.90;;;;;;7396547;19;20006;-60
2022/06/12 02:34:03;;;;;;;16.83;5.10;;;15.40;99.90;;;;;;7396252;19;20449;-60
2022/06/12 02:36:36;;;;;;;36.97;15.15;;;14.00;99.90;;;;;;7394954;19;20354;-59
2022/06/12 02:39:09;;;;;;;20.23;8.65;;;14.10;99.90;;;;;;7397997;19;20035;-60
2022/06/12 02:41:44;;;;;;;36.70;14.60;;;14.00;99.90;;;;;;7396528;19;20486;-60
2022/06/12 02:44:16;;;;;;;21.48;9.85;;;13.80;99.90;;;;;;7396331;19;20042;-60
2022/06/12 02:46:51;;;;;;;21.67;8.60;;;14.00;99.90;;;;;;7396193;19;20470;-60
2022/06/12 02:49:22;;;;;;;17.00;5.47;;;14.80;99.90;;;;;;7393509;19;20034;-60
2022/06/12 02:52:01;;;;;;;16.95;5.97;;;14.00;99.90;;;;;;7396263;19;20010;-60
2022/06/12 02:54:36;;;;;;;25.67;7.00;;;14.00;99.90;;;;;;7395673;19;20018;-60
2022/06/12 02:57:13;;;;;;;17.40;5.38;;;13.90;99.90;;;;;;7394515;19;20031;-60
2022/06/12 02:59:51;;;;;;;17.08;5.75;;;14.00;99.90;;;;;;7395529;19;20013;-60
2022/06/12 03:02:35;;;;;;;19.95;5.82;;;13.80;99.90;;;;;;7395424;19;20027;-61
2022/06/12 03:05:14;;;;;;;18.63;6.00;;;13.40;99.90;;;;;;7394040;19;20086;-60
2022/06/12 03:07:43;;;;;;;13.60;4.53;;;13.70;99.90;;;;;;7396016;19;20022;-61
2022/06/12 03:10:17;;;;;;;20.05;5.15;;;13.90;99.90;;;;;;7394539;19;20368;-60
2022/06/12 03:12:46;;;;;;;15.80;4.97;;;13.80;99.90;;;;;;7394993;19;20014;-60
2022/06/12 03:15:32;;;;;;;12.13;4.72;;;13.70;99.90;;;;;;7394965;19;20015;-61
2022/06/12 03:18:07;;;;;;;14.50;5.15;;;13.90;99.90;;;;;;7395234;19;20042;-60
2022/06/12 03:20:43;;;;;;;15.52;5.60;;;13.70;99.90;;;;;;7394761;19;20010;-60
2022/06/12 03:23:22;;;;;;;19.52;6.95;;;13.60;99.90;;;;;;7394893;19;20007;-61
2022/06/12 03:25:56;;;;;;;12.05;4.63;;;13.60;99.90;;;;;;7394612;19;20373;-60
2022/06/12 03:28:32;;;;;;;14.23;5.20;;;13.50;99.90;;;;;;7394716;19;20014;-60
2022/06/12 03:31:08;;;;;;;12.40;5.15;;;13.50;99.90;;;;;;7394706;19;20011;-60
2022/06/12 03:33:49;;;;;;;15.52;4.78;;;13.50;99.90;;;;;;7394880;19;20007;-60
2022/06/12 03:36:24;;;;;;;12.10;4.97;;;13.50;99.90;;;;;;7393720;19;20006;-60
2022/06/12 03:39:08;;;;;;;17.63;6.22;;;13.50;99.90;;;;;;7394229;19;20090;-60
2022/06/12 03:41:43;;;;;;;22.50;8.35;;;13.70;99.90;;;;;;7394450;19;20085;-60
2022/06/12 03:44:20;;;;;;;23.63;8.45;;;13.30;99.90;;;;;;7394047;19;20066;-61
2022/06/12 03:46:55;;;;;;;15.90;6.95;;;13.50;99.90;;;;;;7393916;19;20010;-60
2022/06/12 03:49:34;;;;;;;12.68;4.53;;;13.30;99.90;;;;;;7393833;19;20045;-61
2022/06/12 03:52:13;;;;;;;9.98;4.15;;;13.30;99.90;;;;;;7394223;19;20623;-60
2022/06/12 03:54:49;;;;;;;12.52;4.20;;;13.20;99.90;;;;;;7393794;19;20032;-60
2022/06/12 04:00:09;;;;;;;8.15;3.85;;;13.30;99.90;;;;;;7392792;19;20028;-61
2022/06/12 04:02:39;;;;;;;12.15;4.38;;;13.50;99.90;;;;;;7392160;19;20395;-60
2022/06/12 04:05:14;;;;;;;10.93;4.13;;;13.20;99.90;;;;;;7393332;19;20017;-61
2022/06/12 04:07:47;;;;;;;10.77;3.25;;;13.20;99.90;;;;;;7396501;19;20498;-60
2022/06/12 04:10:20;;;;;;;10.75;3.55;;;13.30;99.90;;;;;;7392211;19;20041;-60
2022/06/12 04:12:53;;;;;;;6.90;3.55;;;13.30;99.90;;;;;;7391908;19;20018;-61
2022/06/12 04:15:27;;;;;;;10.75;4.00;;;13.30;99.90;;;;;;7393783;19;20018;-60
2022/06/12 04:17:57;;;;;;;10.95;3.88;;;13.30;99.90;;;;;;7390104;19;20482;-60
2022/06/12 04:20:38;;;;;;;11.25;4.40;;;13.30;99.90;;;;;;7393092;19;20547;-60
2022/06/12 04:23:11;;;;;;;8.55;3.60;;;13.30;99.90;;;;;;7391573;19;20018;-60
2022/06/12 04:25:45;;;;;;;8.48;2.92;;;13.20;99.90;;;;;;7393053;19;20483;-60
2022/06/12 04:28:28;;;;;;;9.52;2.95;;;13.20;99.90;;;;;;7393125;19;20032;-60
2022/06/12 04:30:58;;;;;;;10.65;3.40;;;13.30;99.90;;;;;;7392734;19;20015;-61
2022/06/12 04:33:37;;;;;;;8.95;3.20;;;13.10;99.90;;;;;;7392889;19;20066;-60
2022/06/12 04:36:11;;;;;;;11.20;3.40;;;13.10;99.90;;;;;;7392307;19;20011;-60
2022/06/12 04:38:42;;;;;;;10.27;3.38;;;13.20;99.90;;;;;;7394772;19;20475;-60
2022/06/12 04:41:12;;;;;;;10.35;3.20;;;13.20;99.90;;;;;;7392235;19;20017;-61
2022/06/12 04:43:41;;;;;;;11.68;3.15;;;13.20;99.90;;;;;;7392719;19;20017;-60
2022/06/12 04:46:10;;;;;;;7.63;3.15;;;13.30;99.90;;;;;;7390553;19;20018;-60
2022/06/12 04:48:42;;;;;;;11.38;3.25;;;13.20;99.90;;;;;;7392222;19;20070;-60
2022/06/12 04:51:14;;;;;;;9.60;3.05;;;13.30;99.90;;;;;;7392078;19;20010;-61
2022/06/12 04:53:46;;;;;;;9.82;3.47;;;13.30;99.90;;;;;;7392391;19;20015;-60
2022/06/12 04:56:17;;;;;;;10.50;3.13;;;13.30;99.90;;;;;;7392010;19;20426;-60
2022/06/12 04:58:47;;;;;;;10.35;3.30;;;13.60;99.90;;;;;;7392008;19;20022;-60
2022/06/12 05:01:16;;;;;;;9.18;3.50;;;13.50;99.90;;;;;;7392122;19;20010;-60
2022/06/12 05:03:45;;;;;;;9.05;3.47;;;13.70;99.90;;;;;;7392105;19;20018;-60
2022/06/12 05:06:18;;;;;;;12.55;3.25;;;13.60;99.90;;;;;;7394452;19;20491;-60
2022/06/12 05:08:49;;;;;;;9.05;2.90;;;13.70;99.90;;;;;;7390815;19;20389;-60
2022/06/12 05:11:19;;;;;;;11.77;3.40;;;13.70;99.90;;;;;;7390388;19;20019;-60
2022/06/12 05:13:48;;;;;;;10.05;3.22;;;13.80;99.90;;;;;;7398704;19;20503;-60
2022/06/12 05:16:25;;;;;;;8.57;3.35;;;13.90;99.90;;;;;;7398965;19;20007;-60
2022/06/12 05:18:55;;;;;;;8.55;2.70;;;14.00;99.90;;;;;;7396984;19;20489;-60
2022/06/12 05:21:28;;;;;;;10.05;3.72;;;13.90;99.90;;;;;;7398714;19;20404;-60
2022/06/12 05:23:57;;;;;;;11.60;3.25;;;13.90;99.90;;;;;;7399033;19;20054;-60
2022/06/12 05:26:27;;;;;;;7.63;2.78;;;13.90;99.90;;;;;;7398648;19;20011;-60
2022/06/12 05:28:57;;;;;;;8.20;3.42;;;13.90;99.90;;;;;;7398310;19;20011;-60
2022/06/12 05:31:26;;;;;;;6.43;3.20;;;14.00;99.90;;;;;;7398270;19;20017;-60
2022/06/12 05:33:55;;;;;;;10.77;3.22;;;14.20;99.90;;;;;;7398250;19;20011;-60
2022/06/12 05:36:27;;;;;;;11.60;3.58;;;14.00;99.90;;;;;;7400461;19;20014;-60
2022/06/12 05:38:57;;;;;;;10.73;3.38;;;14.30;99.90;;;;;;7398110;19;20015;-60
2022/06/12 05:41:26;;;;;;;10.65;3.17;;;14.00;99.90;;;;;;7399003;19;20014;-60
2022/06/12 05:43:55;;;;;;;11.40;3.65;;;14.20;99.90;;;;;;7397767;19;20557;-60
2022/06/12 05:46:24;;;;;;;7.82;3.15;;;14.20;99.90;;;;;;7396991;19;20010;-60
2022/06/12 05:48:53;;;;;;;10.25;3.45;;;14.20;99.90;;;;;;7398268;19;20018;-60
2022/06/12 05:51:22;;;;;;;11.55;3.67;;;14.20;99.90;;;;;;7397637;19;20031;-60
2022/06/12 05:53:54;;;;;;;10.13;3.20;;;13.90;99.90;;;;;;7397539;19;20479;-60
2022/06/12 05:56:26;;;;;;;13.98;3.80;;;14.10;99.90;;;;;;7397238;19;20455;-60
2022/06/12 05:58:54;;;;;;;11.02;4.00;;;14.10;99.90;;;;;;7397739;19;20017;-60
2022/06/12 06:01:25;;;;;;;10.25;3.90;;;14.10;99.90;;;;;;7397689;19;20041;-59
2022/06/12 06:03:54;;;;;;;9.88;3.55;;;14.10;99.90;;;;;;7395953;19;20014;-60
2022/06/12 06:06:26;;;;;;;13.50;3.60;;;14.20;99.90;;;;;;7396775;19;20002;-60
2022/06/12 06:08:59;;;;;;;10.75;3.83;;;14.00;99.90;;;;;;7396023;19;20522;-60
2022/06/12 06:11:28;;;;;;;12.48;3.38;;;14.10;99.90;;;;;;7395431;19;20014;-59
2022/06/12 06:13:57;;;;;;;15.52;4.30;;;14.90;99.90;;;;;;7397054;19;20475;-60
2022/06/12 06:16:27;;;;;;;11.95;3.67;;;14.30;99.90;;;;;;7397215;19;20011;-60
2022/06/12 06:18:57;;;;;;;8.43;3.25;;;14.40;99.90;;;;;;7397579;19;20027;-60
2022/06/12 06:21:26;;;;;;;11.75;3.60;;;14.40;99.90;;;;;;7396602;19;20091;-60
2022/06/12 06:23:58;;;;;;;11.93;3.50;;;14.20;99.90;;;;;;7397026;19;20468;-60
2022/06/12 06:26:27;;;;;;;12.75;3.88;;;14.30;99.90;;;;;;7396799;19;20018;-60
2022/06/12 06:28:57;;;;;;;12.70;3.58;;;14.30;99.90;;;;;;7396412;19;20015;-60
2022/06/12 06:31:27;;;;;;;14.00;4.60;;;14.20;99.90;;;;;;7397382;19;20007;-60
2022/06/12 06:33:57;;;;;;;16.10;4.32;;;14.80;99.90;;;;;;7397282;19;20019;-60
2022/06/12 06:36:26;;;;;;;18.05;4.47;;;14.60;99.90;;;;;;7396013;19;20021;-60
2022/06/12 06:38:59;;;;;;;18.50;4.63;;;14.70;99.90;;;;;;7393745;19;20025;-59
2022/06/12 06:41:29;;;;;;;14.27;4.15;;;15.40;99.90;;;;;;7396299;19;20336;-60
2022/06/12 06:46:39;;;;;;;20.58;4.97;;;14.70;99.90;;;;;;7396349;19;20019;-60
2022/06/12 06:49:08;;;;;;;14.52;4.28;;;15.10;99.90;;;;;;7395903;19;20042;-60
2022/06/12 06:51:38;;;;;;;18.10;5.38;;;14.90;99.90;;;;;;7396090;19;20011;-60
2022/06/12 06:54:09;;;;;;;15.05;5.15;;;14.90;99.90;;;;;;7395704;19;20010;-60
2022/06/12 06:56:38;;;;;;;12.82;4.50;;;14.90;99.90;;;;;;7395641;19;20030;-61
2022/06/12 06:59:07;;;;;;;15.93;4.20;;;15.00;99.90;;;;;;7394153;19;20507;-60
2022/06/12 07:01:37;;;;;;;15.07;4.90;;;14.90;99.90;;;;;;7395501;19;20017;-60
2022/06/12 07:04:06;;;;;;;14.55;4.40;;;15.10;99.90;;;;;;7395292;19;20483;-60
2022/06/12 07:06:35;;;;;;;16.60;4.43;;;15.10;99.90;;;;;;7398557;19;20019;-60
2022/06/12 07:09:05;;;;;;;16.17;4.63;;;15.20;99.90;;;;;;7394351;19;20022;-60
2022/06/12 07:11:37;;;;;;;12.85;4.22;;;15.20;99.90;;;;;;7393386;19;20014;-60
2022/06/12 07:14:06;;;;;;;22.23;4.90;;;15.30;99.90;;;;;;7395542;19;20018;-60
2022/06/12 07:16:36;;;;;;;16.30;4.28;;;15.40;99.90;;;;;;7394846;19;20078;-60
2022/06/12 07:19:05;;;;;;;12.48;4.38;;;15.50;99.90;;;;;;7393264;19;20078;-60
2022/06/12 07:21:34;;;;;;;18.33;5.00;;;15.30;99.90;;;;;;7394900;19;20007;-60
2022/06/12 07:24:04;;;;;;;17.77;4.95;;;15.20;99.90;;;;;;7394614;19;20372;-60
2022/06/12 07:26:38;;;;;;;15.38;4.20;;;15.40;99.90;;;;;;7394233;19;20487;-60
2022/06/12 07:29:08;;;;;;;19.73;4.65;;;15.40;99.90;;;;;;7394572;19;20018;-60
2022/06/12 07:31:37;;;;;;;18.13;5.60;;;15.40;99.90;;;;;;7394584;19;20037;-60
2022/06/12 07:34:08;;;;;;;17.90;4.63;;;15.50;99.90;;;;;;7397767;19;20021;-60
2022/06/12 07:36:38;;;;;;;12.98;3.80;;;15.50;99.90;;;;;;7392469;19;20014;-60
2022/06/12 07:39:09;;;;;;;13.38;4.47;;;15.70;99.90;;;;;;7392785;19;20014;-60
2022/06/12 07:41:42;;;;;;;15.68;4.15;;;15.60;99.90;;;;;;7394016;19;20066;-60
2022/06/12 07:44:11;;;;;;;13.23;4.03;;;15.70;99.90;;;;;;7393734;19;20080;-60
2022/06/12 07:46:40;;;;;;;15.32;4.18;;;15.80;99.90;;;;;;7395017;19;20006;-60
2022/06/12 07:49:09;;;;;;;10.75;3.90;;;15.80;99.90;;;;;;7393789;19;20074;-60
2022/06/12 07:51:38;;;;;;;19.15;4.00;;;15.90;99.90;;;;;;7394296;19;20391;-60
2022/06/12 07:54:08;;;;;;;16.75;3.85;;;16.00;99.90;;;;;;7393937;19;20007;-60
2022/06/12 07:56:37;;;;;;;14.77;3.92;;;16.00;99.90;;;;;;7393852;19;20490;-60
2022/06/12 07:59:09;;;;;;;14.07;3.50;;;16.00;99.90;;;;;;7392122;19;20336;-60
2022/06/12 08:01:39;;;;;;;15.40;3.25;;;16.00;99.90;;;;;;7393588;19;20668;-60
2022/06/12 08:04:11;;;;;;;13.25;3.38;;;16.20;99.90;;;;;;7393679;19;20014;-60
2022/06/12 08:06:40;;;;;;;13.00;3.67;;;16.10;99.90;;;;;;7393555;19;20098;-60
2022/06/12 08:09:11;;;;;;;11.15;3.45;;;16.00;99.90;;;;;;7392122;19;20014;-60
2022/06/12 08:11:42;;;;;;;11.50;2.83;;;16.10;99.90;;;;;;7391607;19;20667;-60
2022/06/12 08:14:14;;;;;;;12.77;3.60;;;16.30;99.90;;;;;;7393220;19;20011;-60
2022/06/12 08:16:44;;;;;;;12.20;3.22;;;16.30;99.90;;;;;;7393570;19;20021;-60
2022/06/12 08:21:55;;;;;;;15.32;3.42;;;16.50;99.90;;;;;;7393051;19;20512;-60
2022/06/12 08:24:24;;;;;;;14.82;3.33;;;16.50;99.90;;;;;;7392814;19;20514;-60
2022/06/12 08:26:53;;;;;;;11.55;3.00;;;16.60;99.90;;;;;;7392966;19;20019;-60
2022/06/12 08:29:26;;;;;;;15.48;3.58;;;16.70;99.90;;;;;;7393449;19;20032;-60
2022/06/12 08:31:58;;;;;;;11.15;3.22;;;17.00;99.90;;;;;;7392709;19;20014;-60
2022/06/12 08:34:32;;;;;;;12.00;3.47;;;16.80;99.90;;;;;;7395551;19;20339;-60
2022/06/12 08:37:04;;;;;;;13.23;3.53;;;16.80;99.90;;;;;;7392323;19;20022;-60
2022/06/12 08:39:33;;;;;;;14.25;3.40;;;16.80;99.90;;;;;;7390766;19;20038;-60
2022/06/12 08:42:13;;;;;;;11.60;3.13;;;16.80;99.90;;;;;;7392855;19;20085;-60
2022/06/12 08:44:52;;;;;;;10.75;3.25;;;16.90;99.90;;;;;;7392892;19;20014;-60
2022/06/12 08:47:31;;;;;;;16.55;3.15;;;16.80;99.90;;;;;;7397509;19;20021;-60
2022/06/12 08:50:09;;;;;;;10.90;3.42;;;17.00;99.90;;;;;;7400236;19;20010;-60
2022/06/12 08:52:44;;;;;;;11.70;3.58;;;16.90;99.90;;;;;;7400011;19;20010;-60
2022/06/12 08:55:21;;;;;;;13.27;4.00;;;17.20;99.90;;;;;;7399591;19;20010;-60
2022/06/12 08:57:54;;;;;;;10.95;3.22;;;17.20;99.90;;;;;;7398460;19;20010;-60
2022/06/12 09:00:29;;;;;;;13.30;3.35;;;17.10;99.90;;;;;;7399742;19;20027;-60
2022/06/12 09:02:59;;;;;;;9.15;3.13;;;17.20;99.90;;;;;;7401700;19;20014;-61
2022/06/12 09:05:37;;;;;;;10.48;2.97;;;17.10;99.90;;;;;;7399523;19;20038;-61
2022/06/12 09:08:16;;;;;;;14.90;3.22;;;17.40;99.90;;;;;;7397205;19;20045;-61
2022/06/12 09:10:48;;;;;;;9.45;2.80;;;17.50;99.90;;;;;;7397893;19;20471;-61
2022/06/12 09:13:28;;;;;;;9.73;3.17;;;17.60;99.90;;;;;;7399237;19;20056;-61
2022/06/12 09:16:07;;;;;;;11.73;2.97;;;17.70;99.90;;;;;;7399373;19;20010;-61
2022/06/12 09:18:49;;;;;;;6.50;1.90;;;17.60;99.90;;;;;;7397460;19;20025;-61
2022/06/12 09:21:23;;;;;;;9.88;2.92;;;17.50;99.90;;;;;;7399081;19;20103;-60
2022/06/12 09:24:05;;;;;;;13.30;2.80;;;17.40;99.90;;;;;;7398699;19;20019;-61
2022/06/12 09:26:44;;;;;;;12.80;2.75;;;17.40;99.90;;;;;;7398773;19;20015;-62
2022/06/12 09:29:22;;;;;;;8.05;2.70;;;17.60;99.90;;;;;;7398483;19;20014;-60
2022/06/12 09:32:03;;;;;;;13.27;3.58;;;17.80;99.90;;;;;;7399069;19;20018;-60
2022/06/12 09:34:40;;;;;;;11.52;3.53;;;18.00;99.90;;;;;;7398804;19;20027;-60
2022/06/12 09:40:08;;;;;;;10.32;2.72;;;18.20;99.90;;;;;;7398524;19;20369;-60
2022/06/12 09:42:51;;;;;;;10.52;2.80;;;18.20;99.90;;;;;;7398130;19;20015;-60
2022/06/12 09:45:26;;;;;;;9.18;2.45;;;18.20;99.90;;;;;;7398387;19;20085;-60
2022/06/12 09:48:08;;;;;;;11.82;3.00;;;18.20;99.90;;;;;;7398264;19;20129;-60
2022/06/12 09:50:48;;;;;;;9.02;2.42;;;18.70;99.90;;;;;;7397847;19;20507;-60
2022/06/12 09:53:50;;;;;;;7.68;2.88;;;18.10;99.90;;;;;;7397969;19;20372;-60
2022/06/12 09:56:23;;;;;;;8.18;2.58;;;18.20;99.90;;;;;;7397421;19;20093;-60
2022/06/12 09:59:00;;;;;;;10.60;2.58;;;18.20;99.90;;;;;;7395495;19;20011;-60
2022/06/12 10:01:33;;;;;;;10.77;2.70;;;18.40;99.90;;;;;;7397316;19;20424;-60
2022/06/12 10:04:12;;;;;;;10.93;2.90;;;18.50;99.90;;;;;;7401112;19;20023;-60
2022/06/12 10:06:46;;;;;;;7.90;2.28;;;18.70;99.90;;;;;;7396904;19;20368;-60
2022/06/12 10:09:21;;;;;;;8.63;2.55;;;18.70;99.90;;;;;;7395867;19;20015;-60
2022/06/12 10:11:54;;;;;;;12.68;2.80;;;18.80;99.90;;;;;;7395056;19;20106;-60
2022/06/12 10:14:28;;;;;;;6.72;2.60;;;18.90;99.90;;;;;;7397062;19;20086;-60
2022/06/12 10:17:00;;;;;;;8.85;2.40;;;19.00;99.90;;;;;;7396629;19;20031;-59
2022/06/12 10:19:38;;;;;;;10.20;2.40;;;18.90;99.90;;;;;;7395463;19;20034;-60
2022/06/12 10:22:13;;;;;;;7.95;2.80;;;19.00;99.80;;;;;;7396771;19;20034;-60
2022/06/12 10:24:42;;;;;;;8.73;3.10;;;18.90;99.90;;;;;;7397404;19;20006;-61
2022/06/12 10:27:14;;;;;;;9.63;2.55;;;18.80;99.90;;;;;;7396891;19;20010;-60
2022/06/12 10:29:47;;;;;;;6.50;2.95;;;18.90;99.80;;;;;;7396830;19;20011;-60
2022/06/12 10:32:18;;;;;;;6.68;2.60;;;18.60;99.70;;;;;;7400459;19;20081;-61
2022/06/12 10:34:51;;;;;;;8.93;2.65;;;18.70;99.90;;;;;;7396470;19;20413;-61
2022/06/12 10:37:22;;;;;;;7.20;2.63;;;18.50;99.90;;;;;;7396228;19;20011;-61
2022/06/12 10:40:03;;;;;;;9.50;3.15;;;18.50;99.90;;;;;;7393716;19;20364;-61
2022/06/12 10:42:43;;;;;;;8.40;2.90;;;18.50;99.90;;;;;;7396134;19;20011;-60
2022/06/12 10:45:23;;;;;;;8.93;2.40;;;18.30;99.90;;;;;;7395933;19;20014;-61
2022/06/12 10:47:54;;;;;;;9.50;2.70;;;18.40;99.90;;;;;;7396272;19;20010;-60
2022/06/12 10:50:30;;;;;;;9.27;2.78;;;18.30;99.90;;;;;;7395825;19;20014;-60
2022/06/12 10:53:02;;;;;;;8.93;2.70;;;18.30;99.90;;;;;;7395527;19;20014;-60
2022/06/12 10:55:52;;;;;;;8.50;2.47;;;18.50;99.90;;;;;;7395266;19;20510;-61
2022/06/12 10:58:45;;;;;;;10.93;3.42;;;18.70;99.50;;;;;;7395129;19;20037;-61
2022/06/12 11:01:22;;;;;;;7.65;2.58;;;18.70;99.90;;;;;;7396391;19;20019;-60
2022/06/12 11:04:06;;;;;;;7.05;2.35;;;18.90;99.90;;;;;;7395922;19;20033;-61
2022/06/12 11:06:48;;;;;;;8.10;2.20;;;19.10;98.00;;;;;;7395230;19;20304;-60
2022/06/12 11:09:31;;;;;;;8.82;2.10;;;19.10;96.90;;;;;;7392287;19;20018;-61
2022/06/12 11:12:16;;;;;;;7.82;2.22;;;19.30;97.10;;;;;;7392063;19;20025;-61
2022/06/12 11:15:09;;;;;;;7.53;1.98;;;19.50;96.70;;;;;;7394901;19;20506;-61
2022/06/12 11:17:51;;;;;;;8.02;1.95;;;19.80;96.30;;;;;;7395115;19;20022;-61
2022/06/12 11:20:31;;;;;;;5.43;1.88;;;19.50;95.10;;;;;;7393367;19;20090;-60
2022/06/12 11:23:19;;;;;;;5.97;1.50;;;19.50;95.30;;;;;;7394711;19;20429;-61
2022/06/12 11:26:02;;;;;;;7.20;2.03;;;19.60;94.60;;;;;;7394458;19;20010;-61
2022/06/12 11:28:44;;;;;;;5.50;2.28;;;19.60;95.10;;;;;;7394814;19;20325;-61
2022/06/12 11:31:28;;;;;;;5.00;1.90;;;19.90;94.80;;;;;;7394722;19;20015;-61
2022/06/12 11:34:10;;;;;;;4.10;1.95;;;20.10;94.40;;;;;;7394082;19;20010;-61
2022/06/12 11:36:47;;;;;;;5.13;1.63;;;20.10;92.80;;;;;;7393598;19;20015;-61
2022/06/12 11:39:28;;;;;;;4.75;1.73;;;20.00;92.40;;;;;;7393825;19;20014;-61
2022/06/12 11:42:12;;;;;;;6.38;1.60;;;20.20;90.30;;;;;;7393762;19;20017;-61
2022/06/12 11:44:52;;;;;;;4.20;1.80;;;20.50;89.70;;;;;;7393840;19;20500;-61
2022/06/12 11:47:35;;;;;;;7.45;1.90;;;20.30;90.90;;;;;;7394228;19;20049;-61
2022/06/12 11:50:14;;;;;;;7.20;2.05;;;20.20;91.00;;;;;;7393989;19;20014;-61
2022/06/12 11:52:51;;;;;;;3.50;1.58;;;20.20;90.70;;;;;;7393908;19;20088;-60
2022/06/12 11:55:29;;;;;;;3.17;1.35;;;20.00;90.90;;;;;;7394284;19;20018;-61
2022/06/12 11:58:13;;;;;;;4.95;1.70;;;20.20;91.20;;;;;;7393561;19;20002;-62
2022/06/12 12:00:53;;;;;;;4.68;1.60;;;20.10;90.20;;;;;;7394624;19;20475;-61
2022/06/12 12:03:50;;;;;;;7.53;1.85;;;20.20;90.60;;;;;;7393740;19;20040;-61
2022/06/12 12:06:40;;;;;;;4.10;1.98;;;20.60;87.20;;;;;;7392717;19;20011;-61
2022/06/12 12:09:23;;;;;;;3.17;1.30;;;20.70;85.60;;;;;;7392462;19;20019;-61
2022/06/12 12:12:02;;;;;;;5.95;1.73;;;20.60;81.20;;;;;;7391870;19;20385;-61
2022/06/12 12:14:35;;;;;;;7.13;1.42;;;20.70;83.60;;;;;;7393840;19;20018;-60
2022/06/12 12:17:10;;;;;;;6.15;1.80;;;21.10;85.40;;;;;;7393247;19;20010;-61
2022/06/12 12:19:45;;;;;;;5.75;1.33;;;21.10;82.90;;;;;;7391741;19;20035;-62
2022/06/12 12:22:21;;;;;;;3.05;1.33;;;21.00;81.70;;;;;;7392114;19;20082;-61
2022/06/12 12:24:55;;;;;;;7.90;1.70;;;21.10;83.80;;;;;;7392902;19;20023;-61
2022/06/12 12:27:35;;;;;;;5.60;2.10;;;21.10;82.90;;;;;;7392857;19;20034;-61
2022/06/12 12:30:09;;;;;;;5.75;1.52;;;20.90;83.40;;;;;;7393122;19;20468;-61
2022/06/12 12:32:38;;;;;;;3.95;1.42;;;21.00;83.60;;;;;;7393116;19;20025;-60
2022/06/12 12:35:09;;;;;;;4.35;1.80;;;20.80;81.20;;;;;;7392862;19;20077;-61
2022/06/12 12:43:23;;;;;;;6.07;1.65;;;21.20;77.60;;;;;;7390751;19;20018;-61
2022/06/12 12:46:02;;;;;;;8.02;2.03;;;21.20;79.40;;;;;;7392063;19;20014;-61
2022/06/12 12:48:42;;;;;;;7.35;1.80;;;21.10;81.20;;;;;;7392570;19;20010;-61
2022/06/12 12:51:11;;;;;;;3.80;1.80;;;20.80;81.10;;;;;;7391882;19;20082;-61
2022/06/12 12:53:42;;;;;;;5.78;1.67;;;20.70;81.90;;;;;;7392121;19;20015;-61
2022/06/12 12:56:13;;;;;;;6.25;2.15;;;20.90;82.40;;;;;;7391557;19;20022;-61
2022/06/12 12:58:57;;;;;;;6.57;1.90;;;20.80;83.20;;;;;;7391705;19;20098;-61
2022/06/12 13:01:28;;;;;;;5.00;1.80;;;20.40;83.00;;;;;;7394622;19;20042;-61
2022/06/12 13:04:01;;;;;;;7.35;2.10;;;20.40;82.90;;;;;;7391580;19;20497;-61
2022/06/12 13:06:49;;;;;;;7.57;2.00;;;20.40;83.60;;;;;;7391412;19;20010;-61
2022/06/12 13:09:35;;;;;;;8.20;2.13;;;20.50;82.90;;;;;;7390377;19;20010;-61
2022/06/12 13:12:18;;;;;;;7.57;1.90;;;20.80;81.00;;;;;;7390130;19;20022;-59
2022/06/12 13:15:06;;;;;;;4.82;1.80;;;20.60;82.00;;;;;;7391883;19;20011;-60
2022/06/12 13:17:50;;;;;;;6.97;1.83;;;20.70;81.90;;;;;;7391798;19;20023;-59
2022/06/12 13:20:39;;;;;;;4.25;1.95;;;20.20;83.40;;;;;;7389810;19;20082;-59
2022/06/12 13:23:22;;;;;;;3.80;1.90;;;20.20;82.80;;;;;;7391397;19;20018;-62
2022/06/12 13:25:54;;;;;;;7.35;1.85;;;20.80;84.40;;;;;;7391588;19;20010;-62
2022/06/12 13:28:25;;;;;;;4.53;1.70;;;20.80;82.30;;;;;;7391031;19;20017;-59
2022/06/12 13:30:58;;;;;;;10.07;1.88;;;20.80;81.80;;;;;;7390806;19;20015;-59
2022/06/12 13:33:30;;;;;;;6.22;2.00;;;20.60;82.20;;;;;;7393545;19;20038;-59
2022/06/12 13:36:02;;;;;;;5.63;2.00;;;20.80;82.30;;;;;;7397688;19;20014;-59
2022/06/12 13:38:36;;;;;;;5.70;1.90;;;21.10;82.60;;;;;;7396516;19;20494;-59